sensor_id;sensor_type;location;lat;lon;timestamp;pressure;altitude;pressure_sealevel;temperature;humidity
10652;BME280;5374;42.742;23.266;2023-03-01T00:00:33;95903.88;;;6.70;100.00
10652;BME280;5374;42.742;23.266;2023-03-01T00:03:20;95915.84;;;6.73;100.00
10652;BME280;5374;42.742;23.266;2023-03-01T00:06:07;95904.41;;;6.54;100.00
10652;BME280;5374;42.742;23.266;2023-03-01T00:08:56;95885.78;;;6.49;100.00
10652;BME280;5374;42.742;23.266;2023-03-01T00:11:43;95911.22;;;6.68;100.00
10652;BME280;5374;42.742;23.266;2023-03-01T00:14:31;95918.44;;;6.79;100.00
10652;BME280;5374;42.742;23.266;2023-03-01T00:17:18;95900.41;;;6.76;100.00
10652;BME280;5374;42.742;23.266;2023-03-01T00:20:06;95928.69;;;6.94;100.00
10652;BME280;5374;42.742;23.266;2023-03-01T00:22:55;95932.88;;;7.02;100.00
10652;BME280;5374;42.742;23.266;2023-03-01T00:25:44;95830.09;;;6.32;100.00
10652;BME280;5374;42.742;23.266;2023-03-01T00:28:31;95894.41;;;6.63;100.00
10652;BME280;5374;42.742;23.266;2023-03-01T00:31:21;95902.22;;;6.76;100.00
10652;BME280;5374;42.742;23.266;2023-03-01T00:34:09;95880.31;;;6.75;100.00
10652;BME280;5374;42.742;23.266;2023-03-01T00:36:56;95894.84;;;6.84;100.00
10652;BME280;5374;42.742;23.266;2023-03-01T00:39:50;95868.75;;;6.76;100.00
10652;BME280;5374;42.742;23.266;2023-03-01T00:42:39;95879.44;;;6.81;100.00
10652;BME280;5374;42.742;23.266;2023-03-01T00:45:27;95854.03;;;6.56;100.00
10652;BME280;5374;42.742;23.266;2023-03-01T00:48:14;95904.16;;;6.87;100.00
10652;BME280;5374;42.742;23.266;2023-03-01T00:51:05;95908.22;;;6.90;100.00
10652;BME280;5374;42.742;23.266;2023-03-01T00:53:54;95892.84;;;6.80;100.00
10652;BME280;5374;42.742;23.266;2023-03-01T00:56:42;95886.81;;;6.73;100.00
10652;BME280;5374;42.742;23.266;2023-03-01T00:59:30;95890.00;;;6.81;100.00
10652;BME280;5374;42.742;23.266;2023-03-01T01:02:18;95901.34;;;6.82;100.00
10652;BME280;5374;42.742;23.266;2023-03-01T01:05:06;95786.28;;;6.00;100.00
10652;BME280;5374;42.742;23.266;2023-03-01T01:07:53;95877.00;;;6.55;100.00
10652;BME280;5374;42.742;23.266;2023-03-01T01:10:40;95903.03;;;6.76;100.00
10652;BME280;5374;42.742;23.266;2023-03-01T01:13:29;95883.22;;;6.67;100.00
10652;BME280;5374;42.742;23.266;2023-03-01T01:16:19;95836.09;;;6.39;100.00
10652;BME280;5374;42.742;23.266;2023-03-01T01:19:08;95892.13;;;6.66;100.00
10652;BME280;5374;42.742;23.266;2023-03-01T01:21:55;95871.41;;;6.38;100.00
10652;BME280;5374;42.742;23.266;2023-03-01T01:24:43;95893.78;;;6.61;100.00
10652;BME280;5374;42.742;23.266;2023-03-01T01:27:30;95902.66;;;6.73;100.00
10652;BME280;5374;42.742;23.266;2023-03-01T01:30:17;95843.38;;;6.44;100.00
10652;BME280;5374;42.742;23.266;2023-03-01T01:33:06;95894.16;;;6.71;100.00
10652;BME280;5374;42.742;23.266;2023-03-01T01:35:53;95874.13;;;6.57;100.00
10652;BME280;5374;42.742;23.266;2023-03-01T01:38:40;95903.25;;;6.75;100.00
10652;BME280;5374;42.742;23.266;2023-03-01T01:41:28;95914.03;;;6.73;100.00
10652;BME280;5374;42.742;23.266;2023-03-01T01:44:19;95915.72;;;6.61;100.00
10652;BME280;5374;42.742;23.266;2023-03-01T01:47:08;95872.91;;;6.28;100.00
10652;BME280;5374;42.742;23.266;2023-03-01T01:50:01;95888.41;;;6.49;100.00
10652;BME280;5374;42.742;23.266;2023-03-01T01:52:50;95916.50;;;6.68;100.00
10652;BME280;5374;42.742;23.266;2023-03-01T01:55:43;95906.78;;;6.62;100.00
10652;BME280;5374;42.742;23.266;2023-03-01T01:58:32;95892.66;;;6.50;100.00
10652;BME280;5374;42.742;23.266;2023-03-01T02:01:19;95916.13;;;6.58;100.00
10652;BME280;5374;42.742;23.266;2023-03-01T02:04:07;95888.19;;;6.50;100.00
10652;BME280;5374;42.742;23.266;2023-03-01T02:06:59;95913.22;;;6.73;100.00
10652;BME280;5374;42.742;23.266;2023-03-01T02:09:50;95902.38;;;6.81;100.00
10652;BME280;5374;42.742;23.266;2023-03-01T02:12:39;95842.38;;;6.45;100.00
10652;BME280;5374;42.742;23.266;2023-03-01T02:15:26;95858.09;;;6.58;100.00
10652;BME280;5374;42.742;23.266;2023-03-01T02:18:17;95874.06;;;6.70;100.00
10652;BME280;5374;42.742;23.266;2023-03-01T02:21:25;95813.59;;;6.37;100.00
10652;BME280;5374;42.742;23.266;2023-03-01T02:24:26;95843.06;;;6.59;100.00
10652;BME280;5374;42.742;23.266;2023-03-01T02:27:18;95839.56;;;6.40;100.00
10652;BME280;5374;42.742;23.266;2023-03-01T02:30:12;95808.03;;;6.20;100.00
10652;BME280;5374;42.742;23.266;2023-03-01T02:33:00;95884.06;;;6.61;100.00
10652;BME280;5374;42.742;23.266;2023-03-01T02:35:50;95907.88;;;6.55;100.00
10652;BME280;5374;42.742;23.266;2023-03-01T02:38:39;95892.59;;;6.57;100.00
10652;BME280;5374;42.742;23.266;2023-03-01T02:41:28;95904.97;;;6.56;100.00
10652;BME280;5374;42.742;23.266;2023-03-01T02:44:18;95906.03;;;6.55;100.00
10652;BME280;5374;42.742;23.266;2023-03-01T02:47:07;95880.31;;;6.44;100.00
10652;BME280;5374;42.742;23.266;2023-03-01T02:49:54;95871.28;;;6.27;100.00
10652;BME280;5374;42.742;23.266;2023-03-01T02:52:45;95840.13;;;6.10;100.00
10652;BME280;5374;42.742;23.266;2023-03-01T02:55:34;95821.78;;;5.97;100.00
10652;BME280;5374;42.742;23.266;2023-03-01T02:58:22;95860.38;;;6.16;100.00
10652;BME280;5374;42.742;23.266;2023-03-01T03:01:09;95852.69;;;6.15;100.00
10652;BME280;5374;42.742;23.266;2023-03-01T03:04:00;95877.59;;;6.26;100.00
10652;BME280;5374;42.742;23.266;2023-03-01T03:06:48;95843.44;;;6.06;100.00
10652;BME280;5374;42.742;23.266;2023-03-01T03:09:36;95869.72;;;6.12;100.00
10652;BME280;5374;42.742;23.266;2023-03-01T03:12:23;95838.38;;;5.98;100.00
10652;BME280;5374;42.742;23.266;2023-03-01T03:15:10;95812.94;;;5.72;100.00
10652;BME280;5374;42.742;23.266;2023-03-01T03:17:58;95882.88;;;6.26;100.00
10652;BME280;5374;42.742;23.266;2023-03-01T03:20:47;95801.41;;;5.66;100.00
10652;BME280;5374;42.742;23.266;2023-03-01T03:23:38;95876.03;;;6.11;100.00
10652;BME280;5374;42.742;23.266;2023-03-01T03:26:28;95909.34;;;6.37;100.00
10652;BME280;5374;42.742;23.266;2023-03-01T03:29:16;95880.03;;;6.21;100.00
10652;BME280;5374;42.742;23.266;2023-03-01T03:32:05;95878.84;;;6.16;100.00
10652;BME280;5374;42.742;23.266;2023-03-01T03:34:52;95876.00;;;6.18;100.00
10652;BME280;5374;42.742;23.266;2023-03-01T03:37:41;95887.59;;;6.10;100.00
10652;BME280;5374;42.742;23.266;2023-03-01T03:40:47;95910.66;;;6.28;100.00
10652;BME280;5374;42.742;23.266;2023-03-01T03:43:36;95894.84;;;6.22;100.00
10652;BME280;5374;42.742;23.266;2023-03-01T03:46:23;95903.59;;;6.15;100.00
10652;BME280;5374;42.742;23.266;2023-03-01T03:49:11;95827.91;;;5.78;100.00
10652;BME280;5374;42.742;23.266;2023-03-01T03:51:58;95916.53;;;6.24;100.00
10652;BME280;5374;42.742;23.266;2023-03-01T03:54:46;95889.28;;;5.98;100.00
10652;BME280;5374;42.742;23.266;2023-03-01T04:00:41;95909.25;;;6.19;100.00
10652;BME280;5374;42.742;23.266;2023-03-01T04:03:29;95825.09;;;5.73;100.00
10652;BME280;5374;42.742;23.266;2023-03-01T04:06:17;95887.97;;;6.14;100.00
10652;BME280;5374;42.742;23.266;2023-03-01T04:09:04;95937.44;;;6.25;100.00
10652;BME280;5374;42.742;23.266;2023-03-01T04:11:53;95885.03;;;5.97;100.00
10652;BME280;5374;42.742;23.266;2023-03-01T04:14:40;95894.19;;;5.75;100.00
10652;BME280;5374;42.742;23.266;2023-03-01T04:17:27;95897.19;;;5.98;100.00
10652;BME280;5374;42.742;23.266;2023-03-01T04:20:15;95872.50;;;5.79;100.00
10652;BME280;5374;42.742;23.266;2023-03-01T04:23:05;95914.41;;;6.07;100.00
10652;BME280;5374;42.742;23.266;2023-03-01T04:25:59;95899.84;;;5.92;100.00
10652;BME280;5374;42.742;23.266;2023-03-01T04:28:47;95902.28;;;5.87;100.00
10652;BME280;5374;42.742;23.266;2023-03-01T04:31:36;95895.00;;;5.82;100.00
10652;BME280;5374;42.742;23.266;2023-03-01T04:34:23;95863.81;;;5.66;100.00
10652;BME280;5374;42.742;23.266;2023-03-01T04:37:12;95902.84;;;6.02;100.00
10652;BME280;5374;42.742;23.266;2023-03-01T04:40:01;95930.44;;;5.99;100.00
10652;BME280;5374;42.742;23.266;2023-03-01T04:42:58;95904.72;;;5.81;100.00
10652;BME280;5374;42.742;23.266;2023-03-01T04:45:46;95883.66;;;5.75;100.00
10652;BME280;5374;42.742;23.266;2023-03-01T04:48:34;95890.13;;;5.86;100.00
10652;BME280;5374;42.742;23.266;2023-03-01T04:51:21;95883.31;;;5.65;100.00
10652;BME280;5374;42.742;23.266;2023-03-01T04:54:08;95841.66;;;5.35;100.00
10652;BME280;5374;42.742;23.266;2023-03-01T04:56:56;95902.53;;;5.72;100.00
10652;BME280;5374;42.742;23.266;2023-03-01T04:59:43;95911.84;;;5.68;100.00
10652;BME280;5374;42.742;23.266;2023-03-01T05:02:32;95910.47;;;5.59;100.00
10652;BME280;5374;42.742;23.266;2023-03-01T05:05:24;95900.94;;;5.58;100.00
10652;BME280;5374;42.742;23.266;2023-03-01T05:08:13;95900.16;;;5.50;100.00
10652;BME280;5374;42.742;23.266;2023-03-01T05:11:03;95912.28;;;5.58;100.00
10652;BME280;5374;42.742;23.266;2023-03-01T05:13:50;95919.78;;;5.55;100.00
10652;BME280;5374;42.742;23.266;2023-03-01T05:16:40;95907.22;;;5.57;100.00
10652;BME280;5374;42.742;23.266;2023-03-01T05:19:29;95915.34;;;5.48;100.00
10652;BME280;5374;42.742;23.266;2023-03-01T05:22:16;95914.75;;;5.46;100.00
10652;BME280;5374;42.742;23.266;2023-03-01T05:25:05;95912.72;;;5.48;100.00
10652;BME280;5374;42.742;23.266;2023-03-01T05:27:53;95912.72;;;5.48;100.00
10652;BME280;5374;42.742;23.266;2023-03-01T05:30:41;95910.31;;;5.34;100.00
10652;BME280;5374;42.742;23.266;2023-03-01T05:33:28;95899.19;;;5.38;100.00
10652;BME280;5374;42.742;23.266;2023-03-01T05:36:19;95909.66;;;5.52;100.00
10652;BME280;5374;42.742;23.266;2023-03-01T05:39:06;95920.59;;;5.55;100.00
10652;BME280;5374;42.742;23.266;2023-03-01T05:41:55;95914.94;;;5.52;100.00
10652;BME280;5374;42.742;23.266;2023-03-01T05:44:42;95918.97;;;5.61;100.00
10652;BME280;5374;42.742;23.266;2023-03-01T05:47:30;95925.03;;;5.68;100.00
10652;BME280;5374;42.742;23.266;2023-03-01T05:50:20;95924.59;;;5.71;100.00
10652;BME280;5374;42.742;23.266;2023-03-01T05:53:11;95925.03;;;5.68;100.00
10652;BME280;5374;42.742;23.266;2023-03-01T05:55:58;95934.34;;;5.77;100.00
10652;BME280;5374;42.742;23.266;2023-03-01T05:58:47;95940.81;;;5.81;100.00
10652;BME280;5374;42.742;23.266;2023-03-01T06:01:35;95917.53;;;5.71;100.00
10652;BME280;5374;42.742;23.266;2023-03-01T06:04:22;95942.81;;;5.92;100.00
10652;BME280;5374;42.742;23.266;2023-03-01T06:07:09;95946.06;;;5.94;100.00
10652;BME280;5374;42.742;23.266;2023-03-01T06:09:58;95950.31;;;5.95;100.00
10652;BME280;5374;42.742;23.266;2023-03-01T06:12:45;95954.56;;;5.96;100.00
10652;BME280;5374;42.742;23.266;2023-03-01T06:15:32;95952.94;;;5.95;100.00
10652;BME280;5374;42.742;23.266;2023-03-01T06:18:19;95914.47;;;5.74;100.00
10652;BME280;5374;42.742;23.266;2023-03-01T06:21:08;95949.72;;;5.93;100.00
10652;BME280;5374;42.742;23.266;2023-03-01T06:23:55;95941.19;;;5.91;100.00
10652;BME280;5374;42.742;23.266;2023-03-01T06:26:43;95955.38;;;6.03;100.00
10652;BME280;5374;42.742;23.266;2023-03-01T06:29:31;95945.66;;;5.97;100.00
10652;BME280;5374;42.742;23.266;2023-03-01T06:32:18;95958.19;;;6.08;100.00
10652;BME280;5374;42.742;23.266;2023-03-01T06:35:06;95956.13;;;6.10;100.00
10652;BME280;5374;42.742;23.266;2023-03-01T06:37:53;95959.81;;;6.09;100.00
10652;BME280;5374;42.742;23.266;2023-03-01T06:40:54;95953.75;;;6.02;100.00
10652;BME280;5374;42.742;23.266;2023-03-01T06:43:57;95970.72;;;6.20;100.00
10652;BME280;5374;42.742;23.266;2023-03-01T06:46:53;95959.94;;;6.28;100.00
10652;BME280;5374;42.742;23.266;2023-03-01T06:49:40;95956.50;;;6.21;100.00
10652;BME280;5374;42.742;23.266;2023-03-01T06:52:28;95956.44;;;6.34;100.00
10652;BME280;5374;42.742;23.266;2023-03-01T06:55:15;95949.13;;;6.36;100.00
10652;BME280;5374;42.742;23.266;2023-03-01T06:58:02;95956.59;;;6.45;100.00
10652;BME280;5374;42.742;23.266;2023-03-01T07:00:51;95934.47;;;6.46;100.00
10652;BME280;5374;42.742;23.266;2023-03-01T07:03:38;95960.34;;;6.69;100.00
10652;BME280;5374;42.742;23.266;2023-03-01T07:06:26;95967.19;;;6.77;100.00
10652;BME280;5374;42.742;23.266;2023-03-01T07:09:13;95964.16;;;6.73;100.00
10652;BME280;5374;42.742;23.266;2023-03-01T07:12:06;95949.81;;;6.63;100.00
10652;BME280;5374;42.742;23.266;2023-03-01T07:14:53;95952.94;;;6.78;100.00
10652;BME280;5374;42.742;23.266;2023-03-01T07:17:42;95955.56;;;6.84;100.00
10652;BME280;5374;42.742;23.266;2023-03-01T07:20:30;95947.66;;;6.78;100.00
10652;BME280;5374;42.742;23.266;2023-03-01T07:23:17;95951.69;;;6.87;100.00
10652;BME280;5374;42.742;23.266;2023-03-01T07:26:04;95941.91;;;6.94;100.00
10652;BME280;5374;42.742;23.266;2023-03-01T07:28:51;95948.72;;;7.02;100.00
10652;BME280;5374;42.742;23.266;2023-03-01T07:31:39;95938.94;;;7.09;100.00
10652;BME280;5374;42.742;23.266;2023-03-01T07:34:27;95930.94;;;6.91;100.00
10652;BME280;5374;42.742;23.266;2023-03-01T07:37:14;95946.09;;;7.02;100.00
10652;BME280;5374;42.742;23.266;2023-03-01T07:40:03;95938.94;;;7.09;100.00
10652;BME280;5374;42.742;23.266;2023-03-01T07:42:55;95944.13;;;7.22;100.00
10652;BME280;5374;42.742;23.266;2023-03-01T07:45:42;95936.50;;;7.32;100.00
10652;BME280;5374;42.742;23.266;2023-03-01T07:48:33;95924.16;;;7.26;100.00
10652;BME280;5374;42.742;23.266;2023-03-01T07:51:22;95902.78;;;7.09;100.00
10652;BME280;5374;42.742;23.266;2023-03-01T07:54:09;95940.06;;;7.44;100.00
10652;BME280;5374;42.742;23.266;2023-03-01T07:56:57;95931.47;;;7.49;100.00
10652;BME280;5374;42.742;23.266;2023-03-01T07:59:44;95918.34;;;7.61;100.00
10652;BME280;5374;42.742;23.266;2023-03-01T08:02:31;95896.31;;;7.48;100.00
10652;BME280;5374;42.742;23.266;2023-03-01T08:05:18;95919.31;;;7.66;100.00
10652;BME280;5374;42.742;23.266;2023-03-01T08:08:09;95919.44;;;7.71;100.00
10652;BME280;5374;42.742;23.266;2023-03-01T08:10:57;95917.91;;;7.64;100.00
10652;BME280;5374;42.742;23.266;2023-03-01T08:13:47;95900.13;;;7.52;100.00
10652;BME280;5374;42.742;23.266;2023-03-01T08:16:35;95805.81;;;7.16;100.00
10652;BME280;5374;42.742;23.266;2023-03-01T08:19:22;95938.31;;;7.93;100.00
10652;BME280;5374;42.742;23.266;2023-03-01T08:22:09;95922.41;;;7.81;100.00
10652;BME280;5374;42.742;23.266;2023-03-01T08:24:57;95908.59;;;7.79;100.00
10652;BME280;5374;42.742;23.266;2023-03-01T08:27:45;95824.69;;;7.38;100.00
10652;BME280;5374;42.742;23.266;2023-03-01T08:30:32;95912.03;;;7.98;100.00
10652;BME280;5374;42.742;23.266;2023-03-01T08:33:19;95856.75;;;7.60;100.00
10652;BME280;5374;42.742;23.266;2023-03-01T08:36:07;95913.66;;;7.99;100.00
10652;BME280;5374;42.742;23.266;2023-03-01T08:38:54;95904.44;;;7.90;100.00
10652;BME280;5374;42.742;23.266;2023-03-01T08:41:43;95918.66;;;8.07;100.00
10652;BME280;5374;42.742;23.266;2023-03-01T08:44:31;95914.16;;;8.08;100.00
10652;BME280;5374;42.742;23.266;2023-03-01T08:47:19;95864.63;;;7.85;100.00
10652;BME280;5374;42.742;23.266;2023-03-01T08:50:07;95916.13;;;8.31;100.00
10652;BME280;5374;42.742;23.266;2023-03-01T08:52:54;95882.81;;;7.93;100.00
10652;BME280;5374;42.742;23.266;2023-03-01T08:55:42;95906.44;;;8.24;100.00
10652;BME280;5374;42.742;23.266;2023-03-01T08:58:32;95910.84;;;8.31;100.00
10652;BME280;5374;42.742;23.266;2023-03-01T09:01:20;95916.13;;;8.31;100.00
10652;BME280;5374;42.742;23.266;2023-03-01T09:04:07;95921.19;;;8.50;100.00
10652;BME280;5374;42.742;23.266;2023-03-01T09:06:54;95872.69;;;8.20;100.00
10652;BME280;5374;42.742;23.266;2023-03-01T09:09:42;95902.81;;;8.67;100.00
10652;BME280;5374;42.742;23.266;2023-03-01T09:12:29;95891.47;;;8.78;100.00
10652;BME280;5374;42.742;23.266;2023-03-01T09:15:18;95890.91;;;8.88;100.00
10652;BME280;5374;42.742;23.266;2023-03-01T09:18:05;95906.94;;;9.05;100.00
10652;BME280;5374;42.742;23.266;2023-03-01T09:20:52;95916.03;;;8.97;100.00
10652;BME280;5374;42.742;23.266;2023-03-01T09:23:43;95909.66;;;8.86;100.00
10652;BME280;5374;42.742;23.266;2023-03-01T09:26:30;95879.97;;;8.96;100.00
10652;BME280;5374;42.742;23.266;2023-03-01T09:29:17;95889.44;;;9.15;100.00
10652;BME280;5374;42.742;23.266;2023-03-01T09:32:06;95908.59;;;9.41;100.00
10652;BME280;5374;42.742;23.266;2023-03-01T09:34:54;95910.63;;;9.15;100.00
10652;BME280;5374;42.742;23.266;2023-03-01T09:37:51;95892.06;;;9.04;100.00
10652;BME280;5374;42.742;23.266;2023-03-01T09:40:42;95905.47;;;9.20;100.00
10652;BME280;5374;42.742;23.266;2023-03-01T09:43:41;95898.31;;;9.33;100.00
10652;BME280;5374;42.742;23.266;2023-03-01T09:46:33;95890.81;;;9.18;100.00
10652;BME280;5374;42.742;23.266;2023-03-01T09:49:28;95891.88;;;9.40;100.00
10652;BME280;5374;42.742;23.266;2023-03-01T09:52:23;95895.78;;;9.61;100.00
10652;BME280;5374;42.742;23.266;2023-03-01T09:55:16;95883.56;;;9.60;100.00
10652;BME280;5374;42.742;23.266;2023-03-01T09:58:22;95881.50;;;9.39;100.00
10652;BME280;5374;42.742;23.266;2023-03-01T10:01:31;95817.44;;;9.18;100.00
10652;BME280;5374;42.742;23.266;2023-03-01T10:04:39;95864.53;;;9.51;100.00
10652;BME280;5374;42.742;23.266;2023-03-01T10:07:35;95877.09;;;9.56;100.00
10652;BME280;5374;42.742;23.266;2023-03-01T10:10:28;95861.31;;;9.61;100.00
10652;BME280;5374;42.742;23.266;2023-03-01T10:13:22;95874.91;;;9.65;100.00
10652;BME280;5374;42.742;23.266;2023-03-01T10:16:14;95882.16;;;9.81;100.00
10652;BME280;5374;42.742;23.266;2023-03-01T10:19:04;95878.34;;;9.88;100.00
10652;BME280;5374;42.742;23.266;2023-03-01T10:21:53;95863.28;;;9.42;100.00
10652;BME280;5374;42.742;23.266;2023-03-01T10:24:41;95861.28;;;9.73;100.00
10652;BME280;5374;42.742;23.266;2023-03-01T10:27:34;95840.59;;;9.46;100.00
10652;BME280;5374;42.742;23.266;2023-03-01T10:30:34;95842.81;;;9.78;100.00
10652;BME280;5374;42.742;23.266;2023-03-01T10:33:26;95795.44;;;9.18;100.00
10652;BME280;5374;42.742;23.266;2023-03-01T10:36:14;95845.66;;;9.36;100.00
10652;BME280;5374;42.742;23.266;2023-03-01T10:39:11;95785.16;;;9.33;100.00
10652;BME280;5374;42.742;23.266;2023-03-01T10:42:00;95845.41;;;10.01;100.00
10652;BME280;5374;42.742;23.266;2023-03-01T10:44:49;95856.69;;;10.20;100.00
10652;BME280;5374;42.742;23.266;2023-03-01T10:47:36;95858.75;;;10.30;100.00
10652;BME280;5374;42.742;23.266;2023-03-01T10:50:23;95848.69;;;10.32;100.00
10652;BME280;5374;42.742;23.266;2023-03-01T10:53:26;95827.66;;;10.02;100.00
10652;BME280;5374;42.742;23.266;2023-03-01T10:56:16;95836.69;;;9.89;100.00
10652;BME280;5374;42.742;23.266;2023-03-01T10:59:04;95846.84;;;9.92;100.00
10652;BME280;5374;42.742;23.266;2023-03-01T11:02:15;95815.44;;;10.01;100.00
10652;BME280;5374;42.742;23.266;2023-03-01T11:05:16;95854.59;;;10.22;100.00
10652;BME280;5374;42.742;23.266;2023-03-01T11:08:05;95858.06;;;10.51;100.00
10652;BME280;5374;42.742;23.266;2023-03-01T11:11:04;95844.41;;;10.59;100.00
10652;BME280;5374;42.742;23.266;2023-03-01T11:13:56;95851.41;;;10.65;100.00
10652;BME280;5374;42.742;23.266;2023-03-01T11:16:45;95847.53;;;10.56;100.00
10652;BME280;5374;42.742;23.266;2023-03-01T11:19:33;95785.88;;;10.09;100.00
10652;BME280;5374;42.742;23.266;2023-03-01T11:22:20;95826.75;;;9.96;100.00
10652;BME280;5374;42.742;23.266;2023-03-01T11:25:13;95819.41;;;10.26;100.00
10652;BME280;5374;42.742;23.266;2023-03-01T11:28:05;95792.66;;;10.16;100.00
10652;BME280;5374;42.742;23.266;2023-03-01T11:30:59;95839.41;;;10.62;100.00
10652;BME280;5374;42.742;23.266;2023-03-01T11:33:51;95817.91;;;10.47;100.00
10652;BME280;5374;42.742;23.266;2023-03-01T11:36:45;95785.16;;;10.13;100.00
10652;BME280;5374;42.742;23.266;2023-03-01T11:39:37;95835.16;;;10.61;100.00
10652;BME280;5374;42.742;23.266;2023-03-01T11:42:35;95828.38;;;10.54;100.00
10652;BME280;5374;42.742;23.266;2023-03-01T11:45:31;95817.84;;;10.59;100.00
10652;BME280;5374;42.742;23.266;2023-03-01T11:48:49;95809.38;;;10.62;100.00
10652;BME280;5374;42.742;23.266;2023-03-01T11:51:45;95774.38;;;10.65;100.00
10652;BME280;5374;42.742;23.266;2023-03-01T11:54:48;95786.38;;;10.68;100.00
10652;BME280;5374;42.742;23.266;2023-03-01T11:57:53;95777.75;;;10.44;100.00
10652;BME280;5374;42.742;23.266;2023-03-01T12:07:46;95759.78;;;9.89;100.00
10652;BME280;5374;42.742;23.266;2023-03-01T12:10:45;95784.94;;;10.15;100.00
10652;BME280;5374;42.742;23.266;2023-03-01T12:13:59;95787.53;;;10.26;100.00
10652;BME280;5374;42.742;23.266;2023-03-01T12:17:08;95778.69;;;10.21;100.00
10652;BME280;5374;42.742;23.266;2023-03-01T12:20:20;95776.03;;;9.92;100.00
10652;BME280;5374;42.742;23.266;2023-03-01T12:23:31;95778.16;;;10.07;100.00
10652;BME280;5374;42.742;23.266;2023-03-01T12:26:29;95773.97;;;10.11;100.00
10652;BME280;5374;42.742;23.266;2023-03-01T12:29:24;95767.25;;;10.20;100.00
10652;BME280;5374;42.742;23.266;2023-03-01T12:32:26;95783.91;;;10.61;100.00
10652;BME280;5374;42.742;23.266;2023-03-01T12:35:31;95774.69;;;10.69;100.00
10652;BME280;5374;42.742;23.266;2023-03-01T12:38:32;95770.34;;;10.62;100.00
10652;BME280;5374;42.742;23.266;2023-03-01T12:41:40;95731.47;;;10.40;100.00
10652;BME280;5374;42.742;23.266;2023-03-01T12:44:49;95762.16;;;10.64;100.00
10652;BME280;5374;42.742;23.266;2023-03-01T12:47:54;95770.69;;;10.66;100.00
10652;BME280;5374;42.742;23.266;2023-03-01T12:50:47;95775.84;;;10.56;100.00
10652;BME280;5374;42.742;23.266;2023-03-01T12:53:40;95762.47;;;10.51;100.00
10652;BME280;5374;42.742;23.266;2023-03-01T12:56:32;95766.34;;;10.60;100.00
10652;BME280;5374;42.742;23.266;2023-03-01T12:59:25;95772.84;;;10.69;100.00
10652;BME280;5374;42.742;23.266;2023-03-01T13:02:22;95753.69;;;10.67;100.00
10652;BME280;5374;42.742;23.266;2023-03-01T13:05:24;95762.47;;;10.84;100.00
10652;BME280;5374;42.742;23.266;2023-03-01T13:08:16;95731.47;;;9.94;100.00
10652;BME280;5374;42.742;23.266;2023-03-01T13:11:15;95771.00;;;10.53;100.00
10652;BME280;5374;42.742;23.266;2023-03-01T13:14:36;95758.13;;;10.45;100.00
10652;BME280;5374;42.742;23.266;2023-03-01T13:17:41;95770.25;;;10.41;100.00
10652;BME280;5374;42.742;23.266;2023-03-01T13:20:32;95728.06;;;10.11;100.00
10652;BME280;5374;42.742;23.266;2023-03-01T13:23:26;95767.59;;;10.24;100.00
10652;BME280;5374;42.742;23.266;2023-03-01T13:26:17;95750.16;;;10.00;100.00
10652;BME280;5374;42.742;23.266;2023-03-01T13:29:25;95772.81;;;10.19;100.00
10652;BME280;5374;42.742;23.266;2023-03-01T13:32:20;95761.97;;;9.92;100.00
10652;BME280;5374;42.742;23.266;2023-03-01T13:35:40;95765.56;;;9.86;100.00
10652;BME280;5374;42.742;23.266;2023-03-01T13:38:41;95773.50;;;9.86;100.00
10652;BME280;5374;42.742;23.266;2023-03-01T13:41:50;95758.53;;;9.80;100.00
10652;BME280;5374;42.742;23.266;2023-03-01T13:44:38;95784.28;;;9.96;100.00
10652;BME280;5374;42.742;23.266;2023-03-01T13:47:27;95771.03;;;9.96;100.00
10652;BME280;5374;42.742;23.266;2023-03-01T13:50:20;95761.22;;;9.97;100.00
10652;BME280;5374;42.742;23.266;2023-03-01T13:53:13;95755.22;;;10.01;100.00
10652;BME280;5374;42.742;23.266;2023-03-01T13:56:03;95759.69;;;9.84;100.00
10652;BME280;5374;42.742;23.266;2023-03-01T13:58:58;95764.06;;;9.78;100.00
10652;BME280;5374;42.742;23.266;2023-03-01T14:01:53;95747.66;;;9.53;100.00
10652;BME280;5374;42.742;23.266;2023-03-01T14:04:41;95709.81;;;9.41;100.00
10652;BME280;5374;42.742;23.266;2023-03-01T14:07:28;95768.28;;;9.63;100.00
10652;BME280;5374;42.742;23.266;2023-03-01T14:10:16;95743.63;;;9.62;100.00
10652;BME280;5374;42.742;23.266;2023-03-01T14:13:14;95738.44;;;9.55;100.00
10652;BME280;5374;42.742;23.266;2023-03-01T14:16:20;95749.31;;;9.82;100.00
10652;BME280;5374;42.742;23.266;2023-03-01T14:19:15;95721.84;;;9.60;100.00
10652;BME280;5374;42.742;23.266;2023-03-01T14:22:13;95734.16;;;9.66;100.00
10652;BME280;5374;42.742;23.266;2023-03-01T14:25:04;95747.97;;;9.68;100.00
10652;BME280;5374;42.742;23.266;2023-03-01T14:27:56;95743.88;;;9.49;100.00
10652;BME280;5374;42.742;23.266;2023-03-01T14:30:46;95756.50;;;9.70;100.00
10652;BME280;5374;42.742;23.266;2023-03-01T14:33:35;95762.50;;;9.66;100.00
10652;BME280;5374;42.742;23.266;2023-03-01T14:36:26;95742.59;;;9.51;100.00
10652;BME280;5374;42.742;23.266;2023-03-01T14:39:18;95754.16;;;9.45;100.00
10652;BME280;5374;42.742;23.266;2023-03-01T14:42:07;95738.97;;;9.29;100.00
10652;BME280;5374;42.742;23.266;2023-03-01T14:44:55;95759.25;;;9.35;100.00
10652;BME280;5374;42.742;23.266;2023-03-01T14:47:44;95746.34;;;9.27;100.00
10652;BME280;5374;42.742;23.266;2023-03-01T14:50:34;95744.66;;;9.21;100.00
10652;BME280;5374;42.742;23.266;2023-03-01T14:53:24;95756.13;;;9.26;100.00
10652;BME280;5374;42.742;23.266;2023-03-01T14:56:15;95729.34;;;9.11;100.00
10652;BME280;5374;42.742;23.266;2023-03-01T14:59:04;95734.66;;;9.00;100.00
10652;BME280;5374;42.742;23.266;2023-03-01T15:01:53;95744.66;;;9.09;100.00
10652;BME280;5374;42.742;23.266;2023-03-01T15:04:42;95732.31;;;9.15;100.00
10652;BME280;5374;42.742;23.266;2023-03-01T15:07:35;95739.59;;;8.96;100.00
10652;BME280;5374;42.742;23.266;2023-03-01T15:10:25;95741.22;;;8.97;100.00
10652;BME280;5374;42.742;23.266;2023-03-01T15:13:14;95714.66;;;8.80;100.00